Time;durP1;ratioP1;P1;durP2;ratioP2;P2;SDS_P1;SDS_P2;PMS_P1;PMS_P2;Temp;Humidity;BMP_temperature;BMP_pressure;BME280_temperature;BME280_humidity;BME280_pressure;Samples;Min_cycle;Max_cycle;Signal;HPM_P1;HPM_P2
2023/03/02 00:02:00;;;;;;;27.23;20.85;;;3.20;99.90;;;;;;5032716;28;20414;-75
2023/03/02 00:04:41;;;;;;;33.78;21.58;;;3.40;99.90;;;;;;5032650;28;20106;-75
2023/03/02 00:07:10;;;;;;;30.77;24.00;;;3.20;99.90;;;;;;5032935;28;20138;-75
2023/03/02 00:09:37;;;;;;;32.08;23.23;;;3.80;99.90;;;;;;5032341;28;20232;-75
2023/03/02 00:12:04;;;;;;;27.25;20.75;;;3.10;99.90;;;;;;5032762;28;20053;-75
2023/03/02 00:14:30;;;;;;;26.52;22.20;;;3.10;99.90;;;;;;5032166;28;20045;-75
2023/03/02 00:16:55;;;;;;;29.48;22.63;;;3.50;99.90;;;;;;5032150;28;20049;-75
2023/03/02 00:19:21;;;;;;;26.92;20.35;;;3.10;99.90;;;;;;4998529;28;20053;-75
2023/03/02 00:21:47;;;;;;;31.45;22.67;;;3.10;99.90;;;;;;5032677;28;20056;-75
2023/03/02 00:24:14;;;;;;;27.35;20.35;;;3.20;99.90;;;;;;5032681;28;20480;-75
2023/03/02 00:26:40;;;;;;;28.15;21.85;;;3.20;99.90;;;;;;5032311;28;20209;-75
2023/03/02 00:29:07;;;;;;;25.27;18.95;;;3.20;99.90;;;;;;5032134;28;20111;-75
2023/03/02 00:31:32;;;;;;;26.90;20.13;;;3.30;99.90;;;;;;5032078;28;20049;-75
2023/03/02 00:33:58;;;;;;;28.38;21.33;;;3.30;99.90;;;;;;5032313;28;20045;-75
2023/03/02 00:36:24;;;;;;;29.17;21.85;;;3.30;99.90;;;;;;5014519;28;20045;-75
2023/03/02 00:38:51;;;;;;;27.80;21.30;;;3.30;99.90;;;;;;5031917;28;20379;-76
2023/03/02 00:41:20;;;;;;;28.90;20.98;;;3.40;99.90;;;;;;5032471;28;20089;-76
2023/03/02 00:43:46;;;;;;;24.35;20.02;;;3.20;99.90;;;;;;5032229;28;20045;-76
2023/03/02 00:46:18;;;;;;;26.17;20.15;;;3.20;99.90;;;;;;5031935;28;20099;-76
2023/03/02 00:48:44;;;;;;;29.02;20.98;;;3.10;99.90;;;;;;5032362;28;20049;-75
2023/03/02 00:51:10;;;;;;;25.95;20.95;;;3.10;99.90;;;;;;5014630;28;20428;-75
2023/03/02 00:53:37;;;;;;;29.00;20.08;;;3.10;99.90;;;;;;5032421;28;20057;-75
2023/03/02 00:56:04;;;;;;;34.08;21.90;;;3.10;99.90;;;;;;5014258;28;20095;-75
2023/03/02 00:58:30;;;;;;;27.77;22.20;;;3.00;99.90;;;;;;5031865;28;20052;-75
2023/03/02 01:00:57;;;;;;;29.15;20.23;;;3.00;99.90;;;;;;5031863;28;20045;-75
2023/03/02 01:03:23;;;;;;;29.77;22.73;;;3.00;99.90;;;;;;5014541;28;20056;-75
2023/03/02 01:05:54;;;;;;;27.50;20.80;;;3.00;99.90;;;;;;5032767;28;20042;-75
2023/03/02 01:08:21;;;;;;;28.92;22.27;;;3.00;99.90;;;;;;5035640;28;20045;-75
2023/03/02 01:10:47;;;;;;;28.38;22.10;;;2.90;99.90;;;;;;5035955;28;20045;-75
2023/03/02 01:13:12;;;;;;;27.80;19.98;;;2.90;99.90;;;;;;5018266;28;20042;-75
2023/03/02 01:15:38;;;;;;;27.73;20.20;;;2.90;99.90;;;;;;5035754;28;20124;-75
2023/03/02 01:18:04;;;;;;;24.77;19.55;;;2.90;99.90;;;;;;5001471;28;20037;-75
2023/03/02 01:20:30;;;;;;;24.13;20.05;;;2.90;99.90;;;;;;5035484;28;20045;-75
2023/03/02 01:22:56;;;;;;;31.30;22.60;;;3.00;99.90;;;;;;5035568;28;20060;-75
2023/03/02 01:25:22;;;;;;;28.75;20.48;;;3.70;99.90;;;;;;5035216;28;20540;-75
2023/03/02 01:27:47;;;;;;;26.95;20.25;;;2.90;99.90;;;;;;5017828;28;20053;-75
2023/03/02 01:30:13;;;;;;;25.98;20.98;;;3.00;99.90;;;;;;5035323;28;20037;-75
2023/03/02 01:32:39;;;;;;;29.08;19.30;;;2.90;99.90;;;;;;5035339;28;20459;-75
2023/03/02 01:35:05;;;;;;;30.42;21.23;;;2.90;99.90;;;;;;5017515;28;20041;-76
2023/03/02 01:37:31;;;;;;;29.10;19.50;;;2.90;99.90;;;;;;5035713;28;20081;-75
2023/03/02 01:39:56;;;;;;;33.78;22.05;;;3.00;99.90;;;;;;5035499;28;20072;-76
2023/03/02 01:42:22;;;;;;;25.75;19.33;;;3.30;99.90;;;;;;5035314;28;20562;-76
2023/03/02 01:44:51;;;;;;;28.20;20.63;;;3.00;99.90;;;;;;5035296;28;20508;-76
2023/03/02 01:47:33;;;;;;;27.48;20.50;;;2.60;99.90;;;;;;5035193;28;20498;-75
2023/03/02 01:50:13;;;;;;;28.67;20.45;;;2.90;99.90;;;;;;5035744;28;20054;-75
2023/03/02 01:52:39;;;;;;;29.23;21.00;;;2.80;99.90;;;;;;5035035;28;20050;-75
2023/03/02 01:55:09;;;;;;;30.08;21.23;;;2.80;99.90;;;;;;5017428;28;20045;-75
2023/03/02 01:57:42;;;;;;;25.58;19.85;;;2.80;99.90;;;;;;5017623;28;20057;-75
2023/03/02 02:00:11;;;;;;;23.92;19.42;;;2.80;99.90;;;;;;5017534;28;20055;-75
2023/03/02 02:02:40;;;;;;;27.00;22.25;;;2.80;99.90;;;;;;5000789;28;20057;-75
2023/03/02 02:05:12;;;;;;;24.58;21.05;;;2.70;99.90;;;;;;5034590;28;20049;-76
2023/03/02 02:07:39;;;;;;;27.80;21.35;;;3.40;99.90;;;;;;5034972;28;20053;-75
2023/03/02 02:10:05;;;;;;;26.67;21.60;;;3.50;99.90;;;;;;5017272;28;20352;-75
2023/03/02 02:12:31;;;;;;;30.75;23.00;;;2.70;99.90;;;;;;5034831;28;20046;-75
2023/03/02 02:14:59;;;;;;;28.38;22.27;;;2.70;99.90;;;;;;5034210;28;20518;-76
2023/03/02 02:17:27;;;;;;;26.73;21.67;;;2.70;99.90;;;;;;5016898;28;20084;-75
2023/03/02 02:20:41;;;;;;;30.90;23.30;;;2.70;99.90;;;;;;5034213;28;20049;-75
2023/03/02 02:23:27;;;;;;;30.40;23.42;;;2.70;99.90;;;;;;5012608;28;20053;-76
2023/03/02 02:26:00;;;;;;;29.45;22.55;;;2.60;99.90;;;;;;5016675;28;20453;-76
2023/03/02 02:28:48;;;;;;;40.58;22.20;;;2.60;99.90;;;;;;5034076;28;20052;-75
2023/03/02 02:31:28;;;;;;;31.50;22.70;;;2.60;99.90;;;;;;5034476;28;20041;-76
2023/03/02 02:34:21;;;;;;;31.10;21.80;;;2.50;99.90;;;;;;5016700;28;20064;-76
2023/03/02 02:36:49;;;;;;;60.00;26.85;;;2.50;99.90;;;;;;5034146;28;20145;-75
2023/03/02 02:39:27;;;;;;;34.83;24.52;;;2.40;99.90;;;;;;5033644;28;20057;-75
2023/03/02 02:41:57;;;;;;;38.90;25.17;;;2.40;99.90;;;;;;5033928;28;20495;-76
2023/03/02 02:44:23;;;;;;;80.15;32.67;;;2.40;99.90;;;;;;5034031;28;20081;-75
2023/03/02 02:46:48;;;;;;;39.92;25.25;;;2.70;99.90;;;;;;5033572;28;20052;-75
2023/03/02 02:49:37;;;;;;;40.55;25.55;;;2.30;99.90;;;;;;5034260;28;20045;-76
2023/03/02 02:52:04;;;;;;;35.35;25.65;;;2.30;99.90;;;;;;5015940;28;20099;-75
2023/03/02 02:54:32;;;;;;;33.92;26.52;;;2.40;99.90;;;;;;5016308;28;20049;-76
2023/03/02 02:57:01;;;;;;;37.35;25.80;;;2.40;99.90;;;;;;5033354;28;20046;-76
2023/03/02 02:59:40;;;;;;;38.20;27.23;;;2.90;99.90;;;;;;5033739;28;20060;-75
2023/03/02 03:02:06;;;;;;;42.83;28.67;;;2.40;99.90;;;;;;5016186;28;20049;-76
2023/03/02 03:04:31;;;;;;;38.70;26.02;;;2.70;99.90;;;;;;5032981;28;20141;-76
2023/03/02 03:06:59;;;;;;;52.10;26.17;;;2.50;99.90;;;;;;5033787;28;20045;-76
2023/03/02 03:09:25;;;;;;;108.63;39.50;;;2.50;99.90;;;;;;5033278;28;20049;-76
2023/03/02 03:11:55;;;;;;;129.13;37.70;;;2.40;99.90;;;;;;5033671;28;20096;-76
2023/03/02 03:14:28;;;;;;;139.38;42.90;;;2.40;99.90;;;;;;5033219;28;20132;-76
2023/03/02 03:16:54;;;;;;;95.18;40.38;;;2.30;99.90;;;;;;5033284;28;20095;-76
2023/03/02 03:19:30;;;;;;;190.90;53.50;;;2.20;99.90;;;;;;4999402;28;20482;-76
2023/03/02 03:21:58;;;;;;;140.68;45.05;;;2.20;99.90;;;;;;5033231;28;20501;-75
2023/03/02 03:24:25;;;;;;;154.38;54.63;;;2.20;99.90;;;;;;5033106;28;20045;-76
2023/03/02 03:26:53;;;;;;;216.52;57.47;;;2.10;99.90;;;;;;5032950;28;20066;-76
2023/03/02 03:29:23;;;;;;;90.18;41.95;;;2.10;99.90;;;;;;5032840;28;20474;-75
2023/03/02 03:31:49;;;;;;;71.50;37.03;;;2.70;99.90;;;;;;5032871;28;20047;-76
2023/03/02 03:34:15;;;;;;;154.82;51.20;;;2.10;99.90;;;;;;5033578;28;20052;-76
2023/03/02 03:36:42;;;;;;;150.52;46.55;;;2.10;99.90;;;;;;5032613;28;20037;-73
2023/03/02 03:39:09;;;;;;;141.18;53.15;;;2.40;99.90;;;;;;5032599;28;20057;-73
2023/03/02 03:41:35;;;;;;;219.70;60.47;;;2.10;99.90;;;;;;5032772;28;20057;-73
2023/03/02 03:44:00;;;;;;;151.98;49.88;;;2.20;99.90;;;;;;5032837;28;20045;-74
2023/03/02 03:46:26;;;;;;;226.90;57.78;;;2.00;99.90;;;;;;5032870;28;20482;-74
2023/03/02 03:48:52;;;;;;;366.23;85.25;;;2.00;99.90;;;;;;5032629;28;20045;-74
2023/03/02 03:51:18;;;;;;;301.42;76.68;;;3.00;99.90;;;;;;5032539;28;20077;-74
2023/03/02 03:53:44;;;;;;;189.52;54.40;;;2.30;99.90;;;;;;5033101;28;20060;-73
2023/03/02 03:56:11;;;;;;;225.10;60.05;;;1.90;99.90;;;;;;5032942;28;20490;-74
2023/03/02 03:58:37;;;;;;;203.35;51.70;;;2.30;99.90;;;;;;5032506;28;20060;-74
2023/03/02 04:01:03;;;;;;;112.25;41.92;;;1.90;99.90;;;;;;5015022;28;20050;-74
2023/03/02 04:03:28;;;;;;;130.65;54.08;;;2.00;99.90;;;;;;4998705;28;20427;-74
2023/03/02 04:05:54;;;;;;;212.70;68.10;;;2.80;99.90;;;;;;5015064;28;20041;-74
2023/03/02 04:08:20;;;;;;;120.30;40.95;;;2.10;99.90;;;;;;5014944;28;20045;-74
2023/03/02 04:10:46;;;;;;;101.40;36.22;;;2.20;99.90;;;;;;5032346;28;20132;-73
2023/03/02 04:13:12;;;;;;;195.00;68.40;;;2.20;99.90;;;;;;5032496;28;20079;-74
2023/03/02 04:15:40;;;;;;;160.75;62.45;;;2.20;99.90;;;;;;5032174;28;20362;-74
2023/03/02 04:18:06;;;;;;;134.93;49.92;;;2.20;99.90;;;;;;5032384;28;20048;-73
2023/03/02 04:20:32;;;;;;;130.95;48.13;;;2.10;99.90;;;;;;5015145;28;20056;-74
2023/03/02 04:22:58;;;;;;;264.50;70.68;;;2.20;99.90;;;;;;5014586;28;20050;-74
2023/03/02 04:25:26;;;;;;;260.75;75.97;;;2.30;99.90;;;;;;5032408;28;20041;-74
2023/03/02 04:27:52;;;;;;;198.77;58.25;;;2.20;99.90;;;;;;5032371;28;20133;-75
2023/03/02 04:30:22;;;;;;;305.15;71.90;;;2.20;99.90;;;;;;5032280;28;20053;-75
2023/03/02 04:32:48;;;;;;;210.98;59.70;;;2.20;99.90;;;;;;5032090;28;20049;-75
2023/03/02 04:35:14;;;;;;;331.25;71.57;;;2.10;99.90;;;;;;5031991;28;20037;-75
2023/03/02 04:37:41;;;;;;;263.90;67.65;;;2.20;99.90;;;;;;5032501;28;20115;-75
2023/03/02 04:40:08;;;;;;;295.33;78.40;;;2.40;99.90;;;;;;5031893;28;20064;-75
2023/03/02 04:42:34;;;;;;;321.20;84.13;;;2.10;99.90;;;;;;5036052;28;20056;-75
2023/03/02 04:45:00;;;;;;;306.35;76.55;;;2.10;99.90;;;;;;5036982;28;20050;-75
2023/03/02 04:47:26;;;;;;;267.38;74.13;;;2.00;99.90;;;;;;5036611;28;20053;-75
2023/03/02 04:49:56;;;;;;;358.15;78.25;;;2.60;99.90;;;;;;5036679;28;20055;-75
2023/03/02 04:52:22;;;;;;;208.98;51.35;;;1.90;99.90;;;;;;5036740;28;20060;-75
2023/03/02 04:54:48;;;;;;;298.60;78.45;;;1.90;99.90;;;;;;5036132;28;20490;-75
2023/03/02 04:57:13;;;;;;;289.55;70.93;;;1.80;99.90;;;;;;5036455;28;20132;-75
2023/03/02 04:59:39;;;;;;;353.05;98.97;;;1.90;99.90;;;;;;5036772;28;20120;-75
2023/03/02 05:02:05;;;;;;;283.05;77.85;;;1.70;99.90;;;;;;5018811;28;20435;-75
2023/03/02 05:04:31;;;;;;;241.95;56.00;;;1.70;99.90;;;;;;5036414;28;20046;-75
2023/03/02 05:06:57;;;;;;;237.98;54.60;;;1.70;99.90;;;;;;5035927;28;20049;-75
2023/03/02 05:09:29;;;;;;;343.50;80.65;;;1.80;99.90;;;;;;5035939;28;20096;-75
2023/03/02 05:11:57;;;;;;;382.50;90.82;;;2.00;99.90;;;;;;5035892;28;20478;-75
2023/03/02 05:14:24;;;;;;;242.55;57.92;;;1.60;99.90;;;;;;5036156;28;20110;-75
2023/03/02 05:16:50;;;;;;;192.45;50.45;;;1.70;99.90;;;;;;5035699;28;20033;-75
2023/03/02 05:19:17;;;;;;;312.67;79.97;;;1.70;99.90;;;;;;5036021;28;20045;-75
2023/03/02 05:21:43;;;;;;;205.55;56.47;;;1.70;99.90;;;;;;5035562;28;20138;-75
2023/03/02 05:24:10;;;;;;;295.70;69.15;;;2.00;99.90;;;;;;5035571;28;20139;-75
2023/03/02 05:26:36;;;;;;;206.52;55.60;;;2.50;99.90;;;;;;5035375;28;20129;-75
2023/03/02 05:29:02;;;;;;;306.00;93.07;;;1.80;99.90;;;;;;5035657;28;20116;-74
2023/03/02 05:31:38;;;;;;;320.40;73.22;;;1.80;99.90;;;;;;5035223;28;20077;-75
2023/03/02 05:34:06;;;;;;;339.63;96.95;;;1.80;99.90;;;;;;5035329;28;20064;-75
2023/03/02 05:36:32;;;;;;;314.45;73.35;;;1.70;99.90;;;;;;5001153;28;20056;-75
2023/03/02 05:38:57;;;;;;;331.75;73.80;;;1.60;99.90;;;;;;5035135;28;20470;-75
2023/03/02 05:41:23;;;;;;;334.90;85.00;;;1.50;99.90;;;;;;5034562;28;20061;-74
2023/03/02 05:43:49;;;;;;;266.65;68.65;;;1.50;99.90;;;;;;5017443;28;20103;-75
2023/03/02 05:46:16;;;;;;;218.13;58.30;;;1.50;99.90;;;;;;5034883;28;20049;-75
2023/03/02 05:48:42;;;;;;;293.95;78.63;;;1.50;99.90;;;;;;5034937;28;20049;-75
2023/03/02 05:51:08;;;;;;;129.63;43.90;;;1.50;99.90;;;;;;5034296;28;20133;-75
2023/03/02 05:53:33;;;;;;;289.33;85.07;;;1.60;99.90;;;;;;5034600;28;20081;-75
2023/03/02 05:55:59;;;;;;;178.20;56.75;;;2.20;99.90;;;;;;5034869;28;20041;-75
2023/03/02 05:58:25;;;;;;;301.75;86.15;;;1.60;99.90;;;;;;5034666;28;20052;-75
2023/03/02 06:00:51;;;;;;;339.27;100.93;;;1.70;99.90;;;;;;5034111;28;20045;-75
2023/03/02 06:03:18;;;;;;;320.77;81.25;;;1.70;99.90;;;;;;5034427;28;20107;-76
2023/03/02 06:05:43;;;;;;;220.65;62.85;;;1.70;99.90;;;;;;5034454;28;20052;-75
2023/03/02 06:08:09;;;;;;;216.07;58.38;;;1.70;99.90;;;;;;5034415;28;20420;-75
2023/03/02 06:10:35;;;;;;;317.17;85.15;;;1.60;99.90;;;;;;5033957;28;20096;-74
2023/03/02 06:13:01;;;;;;;164.55;48.47;;;1.90;99.90;;;;;;5034293;28;20535;-76
2023/03/02 06:15:28;;;;;;;214.02;56.70;;;1.60;99.90;;;;;;5016800;28;20128;-76
2023/03/02 06:17:55;;;;;;;224.52;72.15;;;1.70;99.90;;;;;;5034836;28;20045;-75
2023/03/02 06:20:21;;;;;;;208.77;62.33;;;1.70;99.90;;;;;;5034651;28;20042;-75
2023/03/02 06:22:46;;;;;;;179.95;52.85;;;1.70;99.90;;;;;;5034079;28;20424;-76
2023/03/02 06:25:15;;;;;;;266.77;71.40;;;1.80;99.90;;;;;;5033924;28;20465;-75
2023/03/02 06:27:42;;;;;;;292.05;66.03;;;1.80;99.90;;;;;;5034368;28;20045;-75
2023/03/02 06:30:11;;;;;;;276.33;64.22;;;1.80;99.90;;;;;;5034210;28;20046;-74
2023/03/02 06:32:37;;;;;;;376.02;100.80;;;1.80;99.90;;;;;;5016356;28;20533;-75
2023/03/02 06:35:04;;;;;;;206.25;50.60;;;1.70;99.90;;;;;;5016446;28;20045;-75
2023/03/02 06:37:30;;;;;;;251.38;69.65;;;1.80;99.90;;;;;;5033844;28;20053;-74
2023/03/02 06:39:57;;;;;;;241.65;65.60;;;3.30;99.90;;;;;;5033891;28;20061;-75
2023/03/02 06:42:24;;;;;;;224.43;62.63;;;1.90;99.90;;;;;;5034089;28;20050;-75
2023/03/02 06:44:50;;;;;;;206.68;51.25;;;1.90;99.90;;;;;;5033699;28;20179;-75
2023/03/02 06:47:17;;;;;;;201.23;48.53;;;1.90;99.90;;;;;;5033620;28;20478;-75
2023/03/02 06:49:43;;;;;;;215.70;53.22;;;2.80;99.90;;;;;;5033624;28;20052;-75
2023/03/02 06:52:09;;;;;;;281.92;68.30;;;2.00;99.90;;;;;;5015893;28;20409;-76
2023/03/02 06:54:36;;;;;;;249.40;69.13;;;2.00;99.90;;;;;;5033552;28;20057;-75
2023/03/02 06:57:02;;;;;;;322.25;84.65;;;2.00;99.90;;;;;;5033348;28;20085;-76
2023/03/02 06:59:28;;;;;;;409.73;108.72;;;2.00;99.90;;;;;;5015927;28;20045;-75
2023/03/02 07:01:54;;;;;;;184.18;54.10;;;2.10;99.90;;;;;;5016279;28;20392;-75
2023/03/02 07:04:19;;;;;;;304.38;83.55;;;2.00;99.90;;;;;;5032176;28;20045;-76
2023/03/02 07:06:45;;;;;;;214.15;52.10;;;2.00;99.90;;;;;;5033213;28;20046;-76
2023/03/02 07:09:11;;;;;;;240.90;64.38;;;2.10;99.90;;;;;;5033542;28;20485;-76
2023/03/02 07:11:37;;;;;;;155.60;51.38;;;2.10;99.90;;;;;;5015762;28;20084;-80
2023/03/02 07:14:02;;;;;;;231.95;64.43;;;2.10;99.90;;;;;;5033217;28;20447;-76
2023/03/02 07:16:29;;;;;;;202.80;52.58;;;1.90;99.90;;;;;;5033282;28;20116;-74
2023/03/02 07:18:55;;;;;;;148.98;41.70;;;1.90;99.90;;;;;;5015774;28;20496;-75
2023/03/02 07:21:21;;;;;;;186.73;49.63;;;1.90;99.90;;;;;;5016273;28;20052;-75
2023/03/02 07:23:47;;;;;;;193.95;46.15;;;2.70;99.90;;;;;;5033033;28;20475;-75
2023/03/02 07:26:12;;;;;;;205.90;60.10;;;1.90;99.90;;;;;;5016054;28;20037;-76
2023/03/02 07:28:42;;;;;;;164.23;51.15;;;1.90;99.90;;;;;;5033051;28;20061;-73
2023/03/02 07:31:08;;;;;;;215.95;55.50;;;2.20;99.90;;;;;;5032976;28;20558;-74
2023/03/02 07:33:34;;;;;;;199.88;59.17;;;1.80;99.90;;;;;;5014880;28;20092;-76
2023/03/02 07:36:01;;;;;;;165.60;46.42;;;1.80;99.90;;;;;;5015415;28;20048;-74
2023/03/02 07:38:27;;;;;;;181.70;55.97;;;2.30;99.90;;;;;;5032730;28;20061;-77
2023/03/02 07:40:53;;;;;;;217.88;65.78;;;1.70;99.90;;;;;;5032904;28;20092;-77
2023/03/02 07:43:18;;;;;;;209.43;58.22;;;1.70;99.90;;;;;;5033282;28;20041;-77
2023/03/02 07:45:44;;;;;;;191.70;54.28;;;1.80;99.90;;;;;;5032695;28;20045;-76
2023/03/02 07:48:10;;;;;;;168.30;42.83;;;1.70;99.90;;;;;;5032970;28;20085;-75
2023/03/02 07:50:36;;;;;;;156.77;45.65;;;1.80;99.90;;;;;;5033593;28;20041;-77
2023/03/02 07:53:02;;;;;;;255.63;67.93;;;1.70;99.90;;;;;;5032995;28;20148;-77
2023/03/02 07:55:28;;;;;;;216.10;66.57;;;1.60;99.90;;;;;;5015493;28;20474;-75
2023/03/02 07:57:53;;;;;;;145.80;52.45;;;1.60;99.90;;;;;;5033414;28;20383;-76
2023/03/02 08:00:20;;;;;;;173.65;48.28;;;1.60;99.90;;;;;;5033302;28;20076;-76
2023/03/02 08:02:45;;;;;;;124.90;44.08;;;1.60;99.90;;;;;;5032833;28;20435;-77
2023/03/02 08:05:12;;;;;;;120.65;43.97;;;1.60;99.90;;;;;;5033018;28;20124;-77
2023/03/02 08:07:38;;;;;;;128.95;45.40;;;1.50;99.90;;;;;;5015349;28;20375;-75
2023/03/02 08:10:04;;;;;;;123.95;53.63;;;1.60;99.90;;;;;;5033253;28;20120;-77
2023/03/02 08:12:30;;;;;;;140.02;47.50;;;1.60;99.90;;;;;;5032878;28;20486;-77
2023/03/02 08:14:56;;;;;;;153.70;52.08;;;2.50;99.90;;;;;;5032277;28;20081;-75
2023/03/02 08:17:21;;;;;;;126.47;43.47;;;2.00;99.90;;;;;;5014824;28;20501;-77
2023/03/02 08:19:47;;;;;;;152.45;49.85;;;1.60;99.90;;;;;;5032402;28;20049;-77
2023/03/02 08:22:13;;;;;;;127.85;35.50;;;1.70;99.90;;;;;;5014598;28;20050;-76
2023/03/02 08:24:40;;;;;;;106.30;37.00;;;1.80;99.90;;;;;;5015750;28;20129;-76
2023/03/02 08:27:08;;;;;;;185.07;42.42;;;1.90;99.90;;;;;;5032214;28;20041;-77
2023/03/02 08:29:33;;;;;;;147.05;43.67;;;1.90;99.90;;;;;;5033063;28;20049;-77
2023/03/02 08:31:59;;;;;;;153.82;49.83;;;1.90;99.90;;;;;;5032607;28;20377;-75
2023/03/02 08:34:26;;;;;;;159.65;53.78;;;2.20;99.90;;;;;;5032337;28;20053;-78
2023/03/02 08:36:52;;;;;;;158.88;52.78;;;1.90;99.90;;;;;;5032701;28;20080;-77
2023/03/02 08:39:18;;;;;;;125.03;43.85;;;2.00;99.90;;;;;;5032115;28;20053;-77
2023/03/02 08:41:44;;;;;;;43.22;30.35;;;2.10;99.90;;;;;;5014437;28;20053;-76
2023/03/02 08:44:09;;;;;;;100.95;37.05;;;2.90;99.90;;;;;;5032555;28;20045;-74
2023/03/02 08:46:35;;;;;;;89.88;28.90;;;2.10;99.90;;;;;;5032241;28;20519;-76
2023/03/02 08:49:01;;;;;;;110.40;33.20;;;2.30;99.90;;;;;;5015068;28;20056;-77
2023/03/02 08:51:27;;;;;;;107.72;39.40;;;2.10;99.90;;;;;;5014919;28;20049;-77
2023/03/02 08:53:55;;;;;;;72.85;33.20;;;2.10;99.90;;;;;;5032331;28;20103;-76
2023/03/02 08:56:26;;;;;;;39.67;27.88;;;2.10;99.90;;;;;;5032270;28;20103;-75
2023/03/02 08:58:54;;;;;;;40.85;24.95;;;2.10;99.90;;;;;;5031889;28;20048;-74
2023/03/02 09:01:27;;;;;;;38.47;24.42;;;2.30;99.90;;;;;;4998018;28;20500;-74
2023/03/02 09:03:53;;;;;;;36.97;23.83;;;2.30;99.90;;;;;;5032017;28;20120;-75
2023/03/02 09:06:19;;;;;;;47.33;26.98;;;2.50;99.90;;;;;;5031681;28;20053;-76
2023/03/02 09:08:45;;;;;;;57.70;30.00;;;2.50;99.90;;;;;;5032036;28;20041;-75
2023/03/02 09:11:11;;;;;;;33.70;24.83;;;2.60;99.90;;;;;;5031804;28;20474;-76
2023/03/02 09:13:37;;;;;;;36.50;24.73;;;2.60;99.90;;;;;;5014186;28;20049;-76
2023/03/02 09:16:04;;;;;;;35.72;23.42;;;2.70;99.90;;;;;;5031908;28;20048;-74
2023/03/02 09:18:30;;;;;;;43.90;22.88;;;2.70;99.90;;;;;;5014365;28;20140;-75
2023/03/02 09:20:57;;;;;;;42.92;25.83;;;2.70;99.90;;;;;;5031976;28;20050;-75
2023/03/02 09:23:24;;;;;;;41.10;27.40;;;2.50;99.90;;;;;;5031806;28;20478;-76
2023/03/02 09:25:50;;;;;;;51.22;25.05;;;2.80;99.90;;;;;;5031490;28;20040;-74
2023/03/02 09:28:16;;;;;;;45.78;27.52;;;2.90;99.90;;;;;;5034110;28;20048;-75
2023/03/02 09:30:51;;;;;;;32.80;22.67;;;2.70;99.90;;;;;;5035069;28;20068;-75
2023/03/02 09:33:17;;;;;;;28.27;21.08;;;2.70;99.90;;;;;;5001668;28;20057;-76
2023/03/02 09:35:44;;;;;;;30.70;20.77;;;2.80;99.90;;;;;;5017662;28;20124;-76
2023/03/02 09:38:14;;;;;;;32.53;21.42;;;3.00;99.90;;;;;;5035183;28;20053;-74
2023/03/02 09:41:05;;;;;;;33.35;23.10;;;3.10;99.90;;;;;;5035161;28;20061;-75
2023/03/02 09:43:46;;;;;;;39.35;21.45;;;3.30;99.90;;;;;;5034883;28;20057;-75
2023/03/02 09:46:29;;;;;;;29.00;21.08;;;3.40;99.90;;;;;;5034831;28;20053;-76
2023/03/02 09:49:15;;;;;;;;;;;3.50;99.90;;;;;;5035175;28;20049;-74
2023/03/02 09:51:46;;;;;;;28.45;19.02;;;3.40;99.90;;;;;;5034688;28;19967;-75
2023/03/02 09:54:19;;;;;;;28.98;19.05;;;3.60;99.90;;;;;;5034886;28;20049;-78
2023/03/02 09:56:53;;;;;;;29.77;20.13;;;4.00;99.90;;;;;;5034647;28;20040;-76
2023/03/02 09:59:30;;;;;;;28.85;18.30;;;3.50;99.90;;;;;;5035024;28;20421;-77
2023/03/02 10:02:00;;;;;;;29.23;18.15;;;3.60;99.90;;;;;;5035044;28;20045;-76
2023/03/02 10:04:43;;;;;;;28.15;20.30;;;3.70;99.90;;;;;;5034907;28;20050;-77
2023/03/02 10:07:28;;;;;;;32.60;22.55;;;3.40;99.90;;;;;;5034672;28;20125;-77
2023/03/02 10:09:59;;;;;;;27.55;18.92;;;3.10;99.90;;;;;;5034638;28;20060;-78
2023/03/02 10:12:52;;;;;;;35.50;22.50;;;3.10;99.90;;;;;;5034999;28;20057;-78
2023/03/02 10:15:24;;;;;;;;;;;3.00;99.90;;;;;;5034727;28;20041;-77
2023/03/02 10:18:11;;;;;;;27.10;20.25;;;2.80;99.90;;;;;;5034828;28;19940;-74
2023/03/02 10:20:48;;;;;;;46.08;21.63;;;3.00;99.90;;;;;;5034107;28;20061;-74
2023/03/02 10:23:35;;;;;;;32.47;20.20;;;3.00;99.90;;;;;;5017760;28;20041;-76
2023/03/02 10:26:24;;;;;;;25.65;18.20;;;3.00;99.90;;;;;;5034912;28;20088;-76
2023/03/02 10:28:59;;;;;;;33.15;19.83;;;3.00;99.90;;;;;;5034106;28;20033;-76
2023/03/02 10:31:28;;;;;;;20.50;14.27;;;3.10;99.90;;;;;;5034659;28;20045;-76
2023/03/02 10:33:54;;;;;;;20.75;14.70;;;3.20;99.90;;;;;;5033920;28;20459;-72
2023/03/02 10:36:26;;;;;;;20.23;14.80;;;3.10;99.90;;;;;;5033734;28;20042;-73
2023/03/02 10:38:54;;;;;;;21.58;15.43;;;2.00;99.90;;;;;;5033710;28;20176;-74
2023/03/02 10:41:28;;;;;;;22.17;15.50;;;3.30;99.90;;;;;;5033662;28;20057;-76
2023/03/02 10:44:00;;;;;;;18.38;12.90;;;3.30;99.90;;;;;;5034287;28;20103;-74
2023/03/02 10:46:26;;;;;;;24.02;16.20;;;3.50;99.90;;;;;;5034036;28;20045;-76
2023/03/02 10:48:57;;;;;;;21.15;16.30;;;3.50;99.90;;;;;;5033475;28;20041;-74
2023/03/02 10:51:24;;;;;;;20.85;13.38;;;3.60;99.90;;;;;;5033501;28;20462;-75
2023/03/02 10:54:00;;;;;;;19.13;13.10;;;3.60;99.90;;;;;;5033471;28;20041;-77
2023/03/02 10:56:26;;;;;;;21.45;14.38;;;3.60;99.90;;;;;;5016127;28;20051;-76
2023/03/02 10:58:52;;;;;;;18.95;13.27;;;3.30;99.90;;;;;;5034417;28;20045;-76
2023/03/02 11:01:18;;;;;;;18.92;12.82;;;3.30;99.90;;;;;;5034491;28;20041;-74
2023/03/02 11:03:55;;;;;;;18.92;12.93;;;3.40;99.90;;;;;;5016480;28;20068;-74
2023/03/02 11:06:21;;;;;;;20.17;12.65;;;3.50;99.90;;;;;;5034090;28;20076;-74
2023/03/02 11:09:02;;;;;;;19.48;13.18;;;3.60;99.90;;;;;;5016185;28;20475;-74
2023/03/02 11:11:28;;;;;;;20.40;12.68;;;3.50;99.90;;;;;;5034153;28;20108;-74
2023/03/02 11:13:57;;;;;;;20.17;13.55;;;3.50;99.90;;;;;;5015911;28;20451;-75
2023/03/02 11:16:29;;;;;;;16.80;11.95;;;3.50;99.90;;;;;;5033219;28;20037;-76
2023/03/02 11:19:11;;;;;;;17.17;11.65;;;3.70;99.90;;;;;;5016168;28;20041;-75
2023/03/02 11:21:45;;;;;;;20.05;12.20;;;4.00;99.90;;;;;;5033499;28;20057;-75
2023/03/02 11:24:25;;;;;;;17.92;11.50;;;4.10;99.90;;;;;;5015852;28;20064;-75
2023/03/02 11:26:58;;;;;;;18.67;11.52;;;4.20;99.90;;;;;;5015567;28;20092;-75
2023/03/02 11:29:44;;;;;;;19.58;12.82;;;4.40;99.90;;;;;;5033151;28;20072;-76
2023/03/02 11:32:25;;;;;;;23.70;12.88;;;4.30;99.90;;;;;;5033052;28;20103;-75
2023/03/02 11:34:57;;;;;;;21.40;13.77;;;4.40;99.90;;;;;;5015707;28;20393;-75
2023/03/02 11:37:38;;;;;;;14.55;10.52;;;4.50;99.90;;;;;;5032725;28;20620;-76
2023/03/02 11:40:15;;;;;;;17.63;11.90;;;4.40;99.90;;;;;;5032534;28;20061;-76
2023/03/02 11:42:43;;;;;;;19.10;12.25;;;4.30;99.90;;;;;;5032852;28;20054;-77
2023/03/02 11:45:12;;;;;;;19.75;13.05;;;4.30;99.90;;;;;;5015388;28;20076;-77
2023/03/02 11:47:41;;;;;;;20.02;12.27;;;4.50;99.90;;;;;;5014948;28;20045;-75
2023/03/02 11:50:11;;;;;;;19.02;11.30;;;4.70;99.90;;;;;;5032177;28;20055;-75
2023/03/02 11:52:43;;;;;;;14.90;11.27;;;4.90;99.90;;;;;;5032383;28;20064;-74
2023/03/02 11:55:21;;;;;;;16.83;11.80;;;5.10;99.90;;;;;;5032036;28;20359;-75
2023/03/02 11:58:00;;;;;;;20.55;12.10;;;5.10;99.90;;;;;;5014926;28;20064;-75
2023/03/02 12:00:41;;;;;;;19.58;12.70;;;5.10;99.90;;;;;;4999423;28;20049;-75
2023/03/02 12:03:34;;;;;;;18.38;11.27;;;4.90;99.90;;;;;;5032399;28;20053;-74
2023/03/02 12:06:03;;;;;;;15.98;11.38;;;4.90;99.90;;;;;;5032363;28;20053;-74
2023/03/02 12:08:41;;;;;;;21.10;11.32;;;4.70;99.90;;;;;;5032178;28;20064;-74
2023/03/02 12:11:32;;;;;;;18.23;11.10;;;4.70;99.90;;;;;;5032223;28;20482;-75
2023/03/02 12:14:01;;;;;;;18.65;12.20;;;4.80;99.90;;;;;;5032219;28;20090;-75
2023/03/02 12:17:17;;;;;;;22.45;12.85;;;4.80;99.90;;;;;;5032375;28;20180;-76
2023/03/02 12:19:44;;;;;;;15.55;11.65;;;4.80;99.90;;;;;;5007737;28;20510;-76
2023/03/02 12:22:13;;;;;;;18.15;11.32;;;4.90;99.90;;;;;;5032004;28;20171;-77
2023/03/02 12:24:42;;;;;;;19.63;13.65;;;5.00;99.90;;;;;;5015135;28;20041;-77
2023/03/02 12:27:14;;;;;;;23.23;13.98;;;5.00;99.90;;;;;;5032326;28;20509;-76
2023/03/02 12:29:41;;;;;;;21.92;12.95;;;5.00;99.90;;;;;;5032365;28;20131;-79
2023/03/02 12:32:28;;;;;;;19.17;11.80;;;5.00;99.90;;;;;;5032162;28;20061;-78
2023/03/02 12:35:16;;;;;;;19.67;12.73;;;5.00;99.90;;;;;;5032073;28;20053;-77
2023/03/02 12:37:55;;;;;;;15.35;11.82;;;5.10;99.90;;;;;;5032178;28;20375;-78
2023/03/02 12:40:58;;;;;;;20.17;12.82;;;5.30;99.90;;;;;;5032527;28;20072;-76
2023/03/02 12:43:41;;;;;;;20.00;13.05;;;5.20;99.90;;;;;;5031634;28;20533;-76
2023/03/02 12:46:27;;;;;;;21.45;12.57;;;5.30;99.90;;;;;;5032340;28;20115;-75